Latest Weather Observations for Weipa

IDQ60801

Issued at 10:02 pm EST Saturday 24 June 2017 (issued every 30 minutes, with the page automatically refreshed every 10 minutes)

About weather observations | Map of weather stations | Latest weather observations for QLD | Other Formats
Station Details ID: 027045 Name: WEIPA AERO Lat: -12.68 Lon: 141.92 Height: 17.96 m
Data from the previous 72 hours. | See also: Recent months at Weipa
Date/Time
EST
Temp
°C
App
Temp
°C
Dew
Point
°C
Rel
Hum
%
Delta-T
°C
Wind Press
QNH
hPa
Press
MSL
hPa
Rain since
9am
mm
Dir  Spd
km/h
Gust
km/h
Spd
kts
Gust
kts
24/10:00pm 23.0 23.8 17.2 70 3.6 ESE 9 13 5 7 1013.4 1013.3 0.0
24/09:30pm 23.8 24.3 17.5 68 3.9 E 11 17 6 9 1013.2 1013.1 0.0
24/09:00pm 24.5 24.7 17.7 66 4.3 E 13 22 7 12 1012.8 1012.7 0.0
24/08:30pm 25.0 24.8 17.7 64 4.6 E 15 20 8 11 1012.6 1012.5 0.0
24/08:00pm 24.2 26.4 19.5 75 3.0 E 7 9 4 5 1012.2 1012.1 0.0
24/07:30pm 24.3 28.0 20.0 77 2.8 CALM 0 6 0 3 1011.6 1011.5 0.0
24/07:00pm 24.5 26.7 19.6 74 3.2 WSW 7 11 4 6 1011.2 1011.1 0.0
24/06:30pm 25.1 27.0 19.0 69 3.9 WSW 7 11 4 6 1010.8 1010.7 0.0
24/06:00pm 26.7 28.3 18.3 60 5.3 SW 7 11 4 6 1010.5 1010.4 0.0
24/05:30pm 28.7 28.7 15.2 43 8.2 SE 9 11 5 6 1010.2 1010.1 0.0
24/05:00pm 29.4 28.9 14.8 41 8.9 SE 11 19 6 10 1010.1 1010.0 0.0
24/04:30pm 29.9 29.2 14.4 38 9.4 ESE 11 17 6 9 1009.9 1009.8 0.0
24/04:00pm 30.4 29.5 14.9 39 9.5 ESE 13 19 7 10 1009.9 1009.8 0.0
24/03:30pm 30.1 29.3 15.0 40 9.2 SE 13 20 7 11 1009.8 1009.7 0.0
24/03:00pm 30.0 29.9 14.9 39 9.2 ESE 9 17 5 9 1009.9 1009.8 0.0
24/02:30pm 29.8 28.0 14.4 39 9.3 SSE 17 26 9 14 1010.3 1010.2 0.0
24/02:00pm 29.6 28.2 14.6 40 9.1 E 15 24 8 13 1010.7 1010.6 0.0
24/01:30pm 29.9 29.1 16.0 43 8.6 SE 15 24 8 13 1011.2 1011.1 0.0
24/01:00pm 28.2 26.1 15.1 44 8.0 ESE 20 28 11 15 1011.7 1011.6 0.0
24/12:30pm 28.2 26.8 15.5 46 7.8 E 17 24 9 13 1012.1 1012.0 0.0
24/12:00pm 28.0 26.2 15.6 46 7.6 ESE 19 26 10 14 1012.6 1012.5 0.0
24/11:30am 27.7 26.0 16.3 49 7.1 ESE 20 28 11 15 1012.9 1012.8 0.0
24/11:00am 26.8 25.1 17.3 56 6.0 E 22 30 12 16 1013.2 1013.1 0.0
24/10:30am 26.7 25.7 18.0 59 5.5 ESE 20 28 11 15 1013.3 1013.2 0.0
24/10:00am 25.6 23.9 18.0 63 4.8 ESE 24 32 13 17 1013.5 1013.4 0.0
24/09:30am 25.0 25.1 19.1 70 3.8 ESE 17 24 9 13 1013.8 1013.7 0.0
24/09:00am 23.2 23.1 18.7 76 2.8 ESE 17 22 9 12 1013.8 1013.7 0.0
24/08:30am 21.7 22.8 18.9 84 1.8 ESE 11 15 6 8 1013.7 1013.6 0.0
24/08:00am 19.3 22.0 17.8 91 0.9 CALM 0 0 0 0 1013.4 1013.3 0.0
24/07:30am 17.2 19.2 15.9 92 0.8 CALM 0 0 0 0 1013.3 1013.2 0.0
24/07:00am 16.2 17.8 14.9 92 0.7 CALM 0 0 0 0 1013.1 1013.0 0.0
24/06:30am 16.9 18.7 15.6 92 0.8 CALM 0 0 0 0 1013.0 1012.9 0.0
24/06:00am 17.2 19.1 15.7 91 0.9 CALM 0 0 0 0 1012.8 1012.7 0.0
24/05:30am 17.7 19.5 16.4 92 0.8 SE 2 7 1 4 1012.5 1012.4 0.0
24/05:00am 18.4 19.7 17.1 92 0.8 E 6 7 3 4 1012.5 1012.4 0.0
24/04:30am 18.4 19.5 17.1 92 0.8 E 7 9 4 5 1012.4 1012.3 0.0
24/04:00am 18.5 18.9 17.2 92 0.8 ESE 11 13 6 7 1012.2 1012.1 0.0
24/03:30am 18.6 19.3 17.1 91 0.9 ESE 9 11 5 6 1012.4 1012.3 0.0
24/03:00am 18.7 19.3 16.9 89 1.1 ESE 9 11 5 6 1012.5 1012.4 0.0
24/02:30am 19.0 19.3 17.1 89 1.2 SE 11 15 6 8 1012.7 1012.6 0.0
24/02:00am 19.2 19.6 17.2 88 1.2 SE 11 13 6 7 1013.0 1012.9 0.0
24/01:30am 19.3 19.6 16.9 86 1.5 ESE 11 15 6 8 1013.4 1013.3 0.0
24/01:00am 19.9 19.9 17.1 84 1.7 ESE 13 17 7 9 1013.7 1013.6 0.0
24/12:30am 20.2 20.0 16.8 81 2.1 ESE 13 17 7 9 1013.7 1013.6 0.0
24/12:00am 20.3 20.4 16.5 79 2.3 ESE 11 13 6 7 1013.8 1013.7 0.0
 
Date/Time
EST
Temp
°C
App
Temp
°C
Dew
Point
°C
Rel
Hum
%
Delta-T
°C
Wind Press
QNH
hPa
Press
MSL
hPa
Rain since
9am
mm
Dir  Spd
km/h
Gust
km/h
Spd
kts
Gust
kts
23/11:30pm 21.0 20.8 16.6 76 2.7 ESE 13 17 7 9 1013.9 1013.8 0.0
23/11:00pm 21.0 20.8 16.6 76 2.7 ESE 13 17 7 9 1014.1 1014.0 0.0
23/10:30pm 21.2 21.6 16.4 74 2.9 ESE 9 11 5 6 1014.3 1014.2 0.0
23/10:00pm 22.0 22.1 16.5 71 3.3 E 11 13 6 7 1014.5 1014.4 0.0
23/09:30pm 22.5 21.8 16.5 69 3.7 ESE 15 19 8 10 1014.5 1014.4 0.0
23/09:00pm 23.1 22.0 16.4 66 4.1 ESE 17 20 9 11 1014.3 1014.2 0.0
23/08:30pm 23.9 22.8 16.4 63 4.6 ESE 17 20 9 11 1014.1 1014.0 0.0
23/08:00pm 24.1 23.4 16.4 62 4.7 ESE 15 19 8 10 1013.6 1013.5 0.0
23/07:30pm 24.8 24.5 16.5 60 5.1 ESE 13 17 7 9 1013.3 1013.2 0.0
23/07:00pm 25.5 25.6 16.4 57 5.6 E 11 13 6 7 1012.9 1012.8 0.0
23/06:30pm 26.5 25.7 16.1 52 6.4 ESE 15 19 8 10 1012.4 1012.3 0.0
23/06:00pm 27.2 26.7 15.9 50 6.9 ESE 13 17 7 9 1012.1 1012.0 0.0
23/05:30pm 28.2 26.9 15.8 47 7.6 ESE 17 22 9 12 1011.7 1011.6 0.0
23/05:00pm 29.2 26.5 15.7 44 8.3 ESE 24 30 13 16 1011.3 1011.2 0.0
23/04:30pm 28.9 26.8 15.1 43 8.4 E 20 30 11 16 1011.2 1011.1 0.0
23/04:00pm 29.8 26.9 15.1 40 9.0 ESE 24 33 13 18 1011.1 1011.0 0.0
23/03:30pm 30.0 26.7 14.9 39 9.2 ESE 26 33 14 18 1011.0 1010.9 0.0
23/03:00pm 30.6 27.6 14.7 38 9.7 E 24 35 13 19 1011.2 1011.1 0.0
23/02:30pm 30.1 27.4 14.6 39 9.4 E 22 32 12 17 1011.4 1011.3 0.0
23/02:00pm 30.1 27.2 15.0 40 9.2 ESE 24 32 13 17 1012.0 1011.9 0.0
23/01:30pm 29.9 28.1 16.0 43 8.6 SE 20 30 11 16 1012.4 1012.3 0.0
23/01:00pm 29.7 27.9 16.1 43 8.5 E 20 32 11 17 1013.0 1012.9 0.0
23/12:30pm 28.9 26.7 16.8 48 7.6 ESE 24 32 13 17 1013.4 1013.3 0.0
23/12:00pm 28.1 25.3 16.4 49 7.3 ESE 26 35 14 19 1014.0 1013.9 0.0
23/11:30am 27.7 24.2 16.6 50 6.9 ESE 30 39 16 21 1014.4 1014.3 0.0
23/11:00am 26.9 23.6 17.1 55 6.1 ESE 30 43 16 23 1014.6 1014.5 0.0
23/10:30am 26.3 23.3 16.8 56 5.9 ESE 28 39 15 21 1015.0 1014.9 0.0
23/10:00am 25.5 24.4 17.7 62 4.9 SE 20 32 11 17 1015.3 1015.2 0.0
23/09:30am 24.7 23.2 17.7 65 4.4 SE 22 33 12 18 1015.5 1015.4 0.0
23/09:00am 23.3 23.1 17.5 70 3.6 SE 15 22 8 12 1015.6 1015.5 0.0
23/08:30am 22.3 22.4 17.4 74 3.0 SE 13 20 7 11 1015.5 1015.4 0.0
23/08:00am 21.0 20.6 17.2 79 2.3 SE 15 19 8 10 1015.0 1014.9 0.0
23/07:30am 20.2 20.5 17.0 82 1.9 SE 11 15 6 8 1014.9 1014.8 0.0
23/07:00am 19.8 20.1 17.0 84 1.7 SE 11 13 6 7 1014.9 1014.8 0.0
23/06:30am 20.0 20.3 17.0 83 1.8 SE 11 17 6 9 1014.6 1014.5 0.0
23/06:00am 19.7 20.0 16.9 84 1.7 SE 11 15 6 8 1014.4 1014.3 0.0
23/05:30am 19.9 20.5 16.9 83 1.8 SSE 9 15 5 8 1014.3 1014.2 0.0
23/05:00am 20.4 21.2 17.2 82 2.0 SSE 9 13 5 7 1014.4 1014.3 0.0
23/04:30am 20.2 21.0 17.2 83 1.8 SSE 9 13 5 7 1014.2 1014.1 0.0
23/04:00am 20.5 21.3 17.3 82 2.0 SE 9 13 5 7 1014.0 1013.9 0.0
23/03:30am 20.8 20.9 17.4 81 2.1 SE 13 15 7 8 1014.0 1013.9 0.0
23/03:00am 21.2 21.0 17.6 80 2.2 SE 15 19 8 10 1014.0 1013.9 0.0
23/02:30am 20.7 21.1 17.3 81 2.1 SE 11 13 6 7 1014.2 1014.1 0.0
23/02:00am 20.8 21.2 17.2 80 2.2 SE 11 15 6 8 1014.4 1014.3 0.0
23/01:30am 21.2 21.8 17.6 80 2.2 SE 11 15 6 8 1014.7 1014.6 0.0
23/01:00am 21.4 22.0 17.6 79 2.3 SE 11 17 6 9 1015.0 1014.9 0.0
23/12:30am 21.7 21.5 17.7 78 2.5 SE 15 20 8 11 1014.9 1014.8 0.0
23/12:00am 22.2 21.8 18.0 77 2.6 SE 17 22 9 12 1015.1 1015.0 0.0
 
Date/Time
EST
Temp
°C
App
Temp
°C
Dew
Point
°C
Rel
Hum
%
Delta-T
°C
Wind Press
QNH
hPa
Press
MSL
hPa
Rain since
9am
mm
Dir  Spd
km/h
Gust
km/h
Spd
kts
Gust
kts
22/11:30pm 21.8 21.1 17.4 76 2.7 SE 17 22 9 12 1015.2 1015.1 0.0
22/11:00pm 22.3 22.5 17.7 75 2.9 SE 13 20 7 11 1015.4 1015.3 0.0
22/10:30pm 22.7 22.2 17.8 74 3.0 SE 17 22 9 12 1015.5 1015.4 0.0
22/10:00pm 22.8 22.9 17.5 72 3.3 SE 13 22 7 12 1015.7 1015.6 0.0
22/09:30pm 23.2 22.7 17.7 71 3.4 SE 17 26 9 14 1015.7 1015.6 0.0
22/09:00pm 23.6 22.7 17.8 70 3.6 SE 19 24 10 13 1015.7 1015.6 0.0
22/08:30pm 23.6 23.9 18.0 71 3.5 ESE 13 20 7 11 1015.4 1015.3 0.0
22/08:00pm 24.2 24.6 18.2 69 3.8 ESE 13 19 7 10 1014.9 1014.8 0.0
22/07:30pm 24.7 24.0 18.2 67 4.1 ESE 19 24 10 13 1014.4 1014.3 0.0
22/07:00pm 24.9 24.9 18.1 66 4.3 ESE 15 20 8 11 1013.9 1013.8 0.0
22/06:30pm 25.4 24.9 17.8 62 4.8 SE 17 24 9 13 1013.5 1013.4 0.0
22/06:00pm 26.1 25.3 18.0 61 5.1 ESE 19 32 10 17 1013.0 1012.9 0.0
22/05:30pm 26.7 25.3 18.0 59 5.5 ESE 22 30 12 16 1012.7 1012.6 0.0
22/05:00pm 27.0 24.1 18.0 58 5.7 ESE 30 37 16 20 1012.4 1012.3 0.0
22/04:30pm 27.5 25.8 18.2 57 5.9 ESE 24 35 13 19 1012.2 1012.1 0.0
22/04:00pm 27.7 26.1 18.4 57 5.9 ESE 24 35 13 19 1012.3 1012.2 0.0
22/03:30pm 27.8 25.5 18.5 57 6.0 ESE 28 43 15 23 1012.2 1012.1 0.0
22/03:00pm 28.0 25.8 18.7 57 6.0 ESE 28 39 15 21 1012.2 1012.1 0.0
22/02:30pm 28.7 26.0 18.5 54 6.5 ESE 30 37 16 20 1012.2 1012.1 0.0
22/02:00pm 29.1 27.2 18.5 52 6.8 ESE 26 37 14 20 1012.4 1012.3 0.0
22/01:30pm 29.2 27.5 18.0 51 7.1 ESE 24 37 13 20 1012.6 1012.5 0.0
22/01:00pm 28.7 26.1 17.9 52 6.9 ESE 28 43 15 23 1012.8 1012.7 0.0
22/12:30pm 29.2 26.7 18.9 53 6.7 ESE 30 39 16 21 1013.1 1013.0 0.0
22/12:00pm 29.1 26.0 18.5 52 6.8 ESE 32 44 17 24 1013.4 1013.3 0.0
22/11:30am 28.3 25.5 18.1 54 6.5 ESE 30 41 16 22 1013.9 1013.8 0.0
22/11:00am 28.2 25.3 18.9 57 6.0 ESE 32 46 17 25 1014.2 1014.1 0.0
22/10:30am 27.5 24.3 18.5 58 5.8 ESE 33 43 18 23 1014.5 1014.4 0.0
22/10:00am 26.4 23.6 19.0 63 4.7 ESE 32 43 17 23 1014.7 1014.6 0.0
22/09:30am 25.8 23.4 19.2 67 4.2 ESE 30 41 16 22 1014.9 1014.8 0.0
22/09:00am 25.1 24.0 19.5 71 3.6 ESE 24 37 13 20 1015.1 1015.0 0.0
22/08:30am 24.0 23.8 19.3 75 3.0 SE 19 26 10 14 1015.2 1015.1 0.0
22/08:00am 22.9 23.8 19.3 80 2.3 SE 13 19 7 10 1015.1 1015.0 0.0
22/07:30am 21.7 22.5 19.1 85 1.6 SE 13 19 7 10 1014.8 1014.7 0.0
22/07:00am 21.2 22.3 18.9 87 1.4 SE 11 15 6 8 1014.6 1014.5 0.0
22/06:30am 21.3 22.0 18.9 86 1.5 SE 13 17 7 9 1014.5 1014.4 0.0
22/06:00am 21.6 21.9 18.8 84 1.8 SE 15 22 8 12 1014.2 1014.1 0.0
22/05:30am 21.9 22.6 18.9 83 1.9 SE 13 19 7 10 1014.2 1014.1 0.0
22/05:00am 22.0 22.4 19.0 83 1.9 SE 15 20 8 11 1014.1 1014.0 0.0
22/04:30am 22.2 22.2 19.0 82 2.0 SE 17 28 9 15 1013.9 1013.8 0.0
22/04:00am 22.5 22.2 19.1 81 2.2 SE 19 26 10 14 1013.7 1013.6 0.0
22/03:30am 22.5 22.1 18.9 80 2.3 SE 19 26 10 14 1013.7 1013.6 0.0
22/03:00am 22.4 22.0 19.0 81 2.2 SE 19 28 10 15 1014.0 1013.9 0.0
22/02:30am 22.3 22.7 18.9 81 2.1 SE 15 20 8 11 1014.2 1014.1 0.0
22/02:00am 22.4 22.8 19.0 81 2.2 SE 15 20 8 11 1014.6 1014.5 0.0
22/01:30am 22.5 22.9 19.1 81 2.2 SE 15 20 8 11 1014.8 1014.7 0.0
22/01:00am 22.1 23.3 19.1 83 1.9 SE 11 17 6 9 1015.1 1015.0 0.0
22/12:30am 22.0 23.2 19.0 83 1.9 ESE 11 15 6 8 1015.3 1015.2 0.0
22/12:00am 21.8 23.2 18.6 82 2.0 ESE 9 11 5 6 1015.4 1015.3 0.0
 
Date/Time
EST
Temp
°C
App
Temp
°C
Dew
Point
°C
Rel
Hum
%
Delta-T
°C
Wind Press
QNH
hPa
Press
MSL
hPa
Rain since
9am
mm
Dir  Spd
km/h
Gust
km/h
Spd
kts
Gust
kts
21/11:30pm 21.9 23.6 18.5 81 2.1 ESE 7 11 4 6 1015.7 1015.6 0.0
21/11:00pm 22.2 24.0 18.2 78 2.5 ESE 6 7 3 4 1015.8 1015.7 0.0
21/10:30pm 22.5 24.0 18.1 76 2.7 ESE 7 9 4 5 1015.8 1015.7 0.0

Other Formats:

Comma delimited format used in spreadsheet applications
http://www.bom.gov.au/fwo/IDQ60801/IDQ60801.94170.axf

JavaScript Object Notation format (JSON) in row-major order
http://www.bom.gov.au/fwo/IDQ60801/IDQ60801.94170.json